Portada
METAR-TAF:

METAR-TAF

Aeroports :

Poitiers, França

latitud: 46-35N, longitud: 000-19E, altitud: 129 m

Observació

L'informe es va fer fa 27 minuts, a les 04:00 UTC
Vent 11 kt del Sud/Sud-Oest
Temperatura 9°C
Humitat 87%
Pressió 1031 hPa
Visibilitat 10 km o més
Cel cobert a una alçada de 1400 ft

METAR: LFBI 230400Z AUTO 21011KT 9999 OVC014 09/07 Q1031 TEMPO BKN009

Hora: 05:27 (04:27 UTC)

Pronòstic

L'informe es va fer fa 5 hores i 27 minuts, a les 23:00 UTC
Pronòstic vàlid del 23 a les 00 UTC al 23 a les 24 UTC
Vent 10 kt del Sud-Oest
Visibilitat 10 km o més
Cel ennuvolat a una alçada de 1500 ft
Temporalment
l' 23 a les 01 UTC al 23 a les 18 UTC
Cel ennuvolat a una alçada de 900 ft
Probabilitat 40%
l' 23 a les 18 UTC al 23 a les 24 UTC
Cel ennuvolat a una alçada de 500 ft

TAF: LFBI 222300Z 2300/2324 23010KT 9999 BKN015 TEMPO 2301/2318 BKN009 PROB40 2318/2324 BKN005

Observacions i pronòstics meteorològics de més de 4000 aeroports (METAR i TAF).

Les estacions disponibles són els punts grocs i vermells al mapa.

Posi el ratolí al punt desitjat per veure el nom de l'estació.

Feu clic per veure les observacions i els pronòstics meteorològics.

Per canviar el mapa: feu clic els botons verds amb una creu de color negre per apropar; al botó verd amb un guió per allunyar la imatge; o en les fletxes verdes per a mapes adjacents.


METAR-TAF: